Tiempo atmosférico en la estación meteorológica de Cenicero, La Rioja (429 m.)



Fecha
DESCASC
Temp. máxima en grados centígrados (hora)
DESCASC
Temp. mínima en grados centígrados (hora)
DESCASC
Temp. media en grados centígrados
DESCASC
Racha de viento máxima en m/sg (hora)
DESCASC
Velocidad máxima media en intervalos de 10 minutos(hora)
DESCASC
Precipitaciones diarias en mm
DESCASC
Precipitaciones de 00:00 a 06:00 en mm
DESCASC
Precipitaciones de 06:00 a 12:00 en mm
DESCASC
Precipitaciones de 12:00 a 18:00 en mm
DESCASC
Precipitaciones de 18:00 a 24:00 en mm
DESCASC
11-12-2019 10.1 (15:50) 6.2 (10:00) 8.2 10.56 (15:50) 6.67 (23:30) 2 0 1.8 0.2 0
10-12-2019 10.6 (16:00) 1.9 (08:30) 6.3 9.72 (21:50) 5.83 (20:50) 0 0 0 0 0
09-12-2019 10.9 (16:00) 4.7 (09:00) 7.8 9.17 (06:20) 4.72 (06:20) 0.4 0 0 0.4 0
08-12-2019 10 (13:20) 3.5 (00:00) 6.8 11.11 (12:40) 6.11 (12:30) 3 0 0 3 0
07-12-2019 13.2 (15:50) 2.1 (00:00) 7.6 6.39 (12:00) 3.61 (15:40) 0 0 0 0 0
06-12-2019 10.6 (16:30) 0.1 (00:00) 5.4 2.5 (20:50) 1.39 (20:50) 0 0 0 0 0
05-12-2019 10.4 (16:00) 4.3 (00:00) 7.3 6.67 (13:40) 3.89 (13:50) 0 0 0 0 0
04-12-2019 11.7 (15:50) -0.5 (-00:0) 5.6 8.61 (18:30) 4.72 (18:20) 0 0 0 0 0
03-12-2019 7.4 (12:30) 1.1 (00:00) 4.3 6.39 (06:30) 3.61 (02:50) 0 0 0 0 0
02-12-2019 9.9 (13:40) 4.6 (00:00) 7.2 8.06 (15:10) 3.89 (15:20) 0.4 0 0 0.4 0
01-12-2019 9.8 (16:20) 3.9 (00:00) 6.9 4.17 (19:00) 2.22 (19:00) 1.4 0 0.4 0 1
30-11-2019 10.8 (14:50) 6 (00:00) 8.4 7.78 (15:50) 3.61 (17:50) 9.8 0 0.4 8.4 1
29-11-2019 16 (16:40) 6.7 (00:00) 11.3 6.11 (05:50) 3.33 (04:00) 0.4 0 0.4 0 0
28-11-2019 14.6 (13:00) 9.9 (00:00) 12.3 9.72 (03:00) 5 (03:20) 5.4 0 0 0.6 4.8
27-11-2019 14.5 (12:40) 9 (00:00) 11.8 13.89 (02:00) 8.06 (02:10) 4.6 0 0 3.2 1.4
26-11-2019 13.3 (23:20) 5.6 (00:00) 9.5 9.44 (23:10) 5.28 (23:10) 2 0 0.2 0 1.8
25-11-2019 16 (14:10) 4.9 (00:00) 10.5 11.94 (13:40) 5.83 (15:00) 0.2 0.2 0 0 0
24-11-2019 11.3 (15:20) 4.8 (00:00) 8.1 11.11 (00:20) 5.28 (00:10) 1 0 0 0 1
23-11-2019 10.9 (15:40) 6 (00:00) 8.4 16.11 (12:10) 8.61 (10:40) 0.4 0.2 0.2 0 0
22-11-2019 9.2 (16:50) 4.2 (00:00) 6.7 12.22 (12:20) 7.22 (13:00) 4.8 0 0 2.2 2.6
21-11-2019 7.7 (16:20) 3.6 (00:00) 5.6 5.28 (10:20) 3.06 (13:50) 0.4 0 0.4 0 0
20-11-2019 6.4 (15:50) 1.1 (00:00) 3.8 8.89 (12:20) 4.17 (11:50) 0.2 0 0 0 0.2
19-11-2019 10.6 (15:50) 1.7 (00:00) 6.2 6.11 (14:40) 3.33 (15:20) 0 0 0 0 0
18-11-2019 9.1 (15:10) 5 (00:00) 7.1 8.33 (02:50) 4.44 (00:10) 1.6 0.4 0.4 0 0.8
17-11-2019 9 (15:40) 4.7 (00:00) 6.8 9.17 (15:50) 5 (16:00) 2 0 0.8 0.4 0.8
16-11-2019 7.5 (16:10) 1 (00:00) 4.3 10.28 (14:20) 4.72 (14:10) 0 0 0 0 0
15-11-2019 6.4 (11:40) 2.8 (00:00) 4.6 14.17 (12:00) 7.78 (11:00) 12.8 0.8 5.4 6.2 0.4

Gráficas

Temp. máximas Temp. mínimas Temp. medias Precipitaciones Rachas de viento máximas Velocidades máximas media en intervalos de 10 minutos

Datos horarios

Fecha y hora oficial Temperatura (ºC) Velocidad del viento (km/h) Dirección del viento Racha (km/h) Dirección de racha Precipitación (mm) Presión (hPa) Tendencia (hPa) Humedad (%)
2019-12-14 23:00:00 8.7 2 Sur 11 Sudoeste 0 -- -- 77
2019-12-14 22:00:00 9.8 5 Sudoeste 17 Sur 0 -- -- 72
2019-12-14 21:00:00 9.6 3 Sur 10 Sudoeste 0 -- -- 76
2019-12-14 20:00:00 10.3 8 Sudoeste 14 Sudoeste 0 -- -- 75
2019-12-14 19:00:00 10.9 0 Calma 10 Sudoeste 0 -- -- 72
2019-12-14 18:00:00 11.9 2 Noroeste 15 Sudoeste 0 -- -- 68
2019-12-14 17:00:00 13.5 8 Sudoeste 18 Sudoeste 0 -- -- 60
2019-12-14 16:00:00 14.2 7 Oeste 31 Oeste 0 -- -- 58
2019-12-14 15:00:00 13.8 17 Oeste 37 Oeste 0 -- -- 58
2019-12-14 14:00:00 13.8 19 Oeste 41 Oeste 0 -- -- 58
2019-12-14 13:00:00 13.8 20 Oeste 35 Oeste 0 -- -- 59
2019-12-14 12:00:00 13.7 20 Noroeste 37 Noroeste 0 -- -- 62
2019-12-14 11:00:00 13 10 Sudoeste 24 Oeste 0 -- -- 63
2019-12-14 10:00:00 10.7 9 Oeste 20 Oeste 0 -- -- 72
2019-12-14 09:00:00 10.1 9 Oeste 19 Oeste 0 -- -- 78
2019-12-14 08:00:00 10.1 10 Oeste 27 Noroeste 0 -- -- 77
2019-12-14 07:00:00 10.1 15 Noroeste 31 Noroeste 0 -- -- 77
2019-12-14 06:00:00 9.7 10 Oeste 32 Oeste 0 -- -- 77
2019-12-14 05:00:00 10.7 19 Oeste 46 Noroeste 0 -- -- 70
2019-12-14 04:00:00 10.6 26 Noroeste 42 Noroeste 0 -- -- 71
2019-12-14 03:00:00 10.9 11 Noroeste 31 Oeste 0 -- -- 70
2019-12-14 02:00:00 11.8 19 Noroeste 42 Noroeste 0 -- -- 66
2019-12-14 01:00:00 11.7 20 Noroeste 37 Oeste 0 -- -- 74
2019-12-14 00:00:00 12.3 20 Noroeste 49 Oeste 0 -- -- 70
2019-12-13 23:00:00 12.6 24 Oeste 42 Oeste 0 -- -- 71
2019-12-13 22:00:00 13 20 Noroeste 43 Noroeste 0 -- -- 71
2019-12-13 21:00:00 12.9 15 Oeste 28 Oeste 0 -- -- 73
2019-12-13 20:00:00 13.8 19 Oeste 46 Oeste 0 -- -- 72
2019-12-13 19:00:00 14.4 22 Oeste 40 Oeste 0 -- -- 72
2019-12-13 18:00:00 14 15 Noroeste 29 Noroeste 0 -- -- 78
2019-12-13 17:00:00 13.4 15 Noroeste 33 Noroeste 0 -- -- 86
2019-12-13 16:00:00 13.8 19 Oeste 36 Noroeste 0.2 -- -- 83
2019-12-13 15:00:00 14.1 19 Oeste 42 Oeste 0 -- -- 77
2019-12-13 14:00:00 14.4 20 Oeste 55 Oeste 0 -- -- 75
2019-12-13 13:00:00 13.3 26 Oeste 52 Oeste 0.2 -- -- 80
2019-12-13 12:00:00 13.7 26 Oeste 51 Oeste 0 -- -- 74
2019-12-13 11:00:00 13.3 24 Oeste 42 Oeste 0 -- -- 76
2019-12-13 10:00:00 11.7 19 Oeste 41 Oeste 0.2 -- -- 87
2019-12-13 09:00:00 12.7 22 Noroeste 49 Oeste 0.2 -- -- 80
2019-12-13 08:00:00 13.1 26 Oeste 46 Oeste 0 -- -- 78
2019-12-13 07:00:00 13.7 23 Noroeste 45 Oeste 0 -- -- 74
2019-12-13 06:00:00 13.3 24 Noroeste 41 Oeste 0 -- -- 77
2019-12-13 05:00:00 13.3 23 Noroeste 43 Oeste 0 -- -- 77
2019-12-13 04:00:00 12.5 20 Oeste 37 Noroeste 0 -- -- 83
2019-12-13 03:00:00 11.5 16 Noroeste 36 Noroeste 0.2 -- -- 91
2019-12-13 02:00:00 11.4 13 Noroeste 36 Oeste 0 -- -- 91
2019-12-13 01:00:00 11.1 15 Oeste 32 Oeste 1.8 -- -- 93
2019-12-13 00:00:00 10.7 12 Noroeste 27 Oeste 1.8 -- -- 93
2019-12-12 23:00:00 10.8 18 Oeste 30 Noroeste 1 -- -- 91
2019-12-12 22:00:00 10.8 18 Oeste 30 Oeste 0.6 -- -- 88
2019-12-12 21:00:00 10.4 15 Oeste 26 Noroeste 0.2 -- -- 88
2019-12-12 20:00:00 9.8 13 Oeste 27 Oeste 0.8 -- -- 89
2019-12-12 19:00:00 10.2 13 Oeste 32 Oeste 0.2 -- -- 84
2019-12-12 18:00:00 10.4 19 Oeste 46 Oeste 0.2 -- -- 79
2019-12-12 17:00:00 9.9 17 Oeste 37 Oeste 0 -- -- 79
2019-12-12 16:00:00 9.7 18 Oeste 33 Oeste 0 -- -- 79
2019-12-12 15:00:00 9.5 12 Oeste 26 Oeste 0 -- -- 77
2019-12-12 14:00:00 9.3 7 Noroeste 31 Oeste 0.4 -- -- 77
2019-12-12 13:00:00 9.7 14 Oeste 30 Oeste 0 -- -- 71
2019-12-12 12:00:00 8.9 3 Oeste 9 Norte 0 -- -- 73
2019-12-12 11:00:00 8.3 3 Oeste 16 Oeste 0 -- -- 78
2019-12-12 10:00:00 7.8 5 Oeste 18 Oeste 0 -- -- 77
2019-12-12 09:00:00 7.5 8 Oeste 28 Noroeste 0 -- -- 77
2019-12-12 08:00:00 7.5 15 Noroeste 32 Noroeste 0 -- -- 77
2019-12-12 07:00:00 7.1 9 Noroeste 23 Noroeste 0 -- -- 78
2019-12-12 06:00:00 6.7 15 Noroeste 26 Noroeste 0 -- -- 78
2019-12-12 05:00:00 6.6 10 Noroeste 28 Oeste 0 -- -- 78
2019-12-12 04:00:00 6.7 13 Oeste 37 Oeste 0 -- -- 77
2019-12-12 03:00:00 6.6 14 Noroeste 25 Oeste 0 -- -- 78
2019-12-12 02:00:00 6.8 14 Noroeste 34 Oeste 0 -- -- 77
2019-12-12 01:00:00 6.8 14 Oeste 32 Noroeste 0 -- -- 77
2019-12-12 00:00:00 7.1 14 Noroeste 38 Oeste 0 -- -- 73
2019-12-11 23:00:00 7.3 13 Noroeste 32 Oeste 0 -- -- 73
2019-12-11 22:00:00 7.5 18 Oeste 35 Oeste 0 -- -- 70
2019-12-11 21:00:00 7.6 19 Oeste 32 Oeste 0 -- -- 70
2019-12-11 20:00:00 7.2 8 Noroeste 18 Oeste 0 -- -- 74
2019-12-11 19:00:00 7.4 9 Oeste 15 Oeste 0 -- -- 76
2019-12-11 18:00:00 7.8 3 Oeste 15 Oeste 0 -- -- 75
2019-12-11 17:00:00 9.2 10 Oeste 34 Oeste 0 -- -- 70
2019-12-11 16:00:00 10 20 Oeste 38 Oeste 0 -- -- 67
2019-12-11 15:00:00 9 19 Oeste 32 Oeste 0 -- -- 67
2019-12-11 14:00:00 8.2 8 Oeste 18 Oeste 0 -- -- 83
2019-12-11 13:00:00 7.5 10 Oeste 28 Oeste 0.2 -- -- 91
2019-12-11 12:00:00 6.7 12 Oeste 23 Oeste 0.2 -- -- 94
2019-12-11 11:00:00 6.3 9 Oeste 15 Oeste 0.2 -- -- 93
2019-12-11 10:00:00 6.2 9 Oeste 19 Oeste 1 -- -- 91
2019-12-11 09:00:00 6.6 14 Oeste 38 Noroeste 0.4 -- -- 86
2019-12-11 08:00:00 7.9 13 Oeste 35 Oeste 0 -- -- 71
2019-12-11 07:00:00 8.2 19 Oeste 37 Oeste 0 -- -- 65
2019-12-11 06:00:00 6.6 15 Oeste 27 Sudoeste 0 -- -- 72
2019-12-11 05:00:00 6.9 14 Sudoeste 27 Oeste 0 -- -- 69
2019-12-11 04:00:00 7.2 17 Oeste 28 Oeste 0 -- -- 67
2019-12-11 03:00:00 7.6 11 Oeste 25 Oeste 0 -- -- 65
2019-12-11 02:00:00 8.1 12 Oeste 26 Oeste 0 -- -- 67
2019-12-11 01:00:00 8.1 15 Sudoeste 28 Sudoeste 0 -- -- 69
2019-12-11 00:00:00 8.3 13 Sudoeste 33 Oeste 0 -- -- 71
2019-12-10 23:00:00 8.5 14 Oeste 32 Oeste 0 -- -- 72
2019-12-10 22:00:00 8.6 20 Oeste 35 Oeste 0 -- -- 72
2019-12-10 21:00:00 9.2 21 Oeste 32 Oeste 0 -- -- 69
2019-12-10 20:00:00 8.8 15 Oeste 33 Noroeste 0 -- -- 72
2019-12-10 19:00:00 8.9 17 Oeste 32 Oeste 0 -- -- 73
2019-12-10 18:00:00 9.3 18 Oeste 28 Oeste 0 -- -- 72
2019-12-10 17:00:00 10 14 Oeste 24 Oeste 0 -- -- 71
2019-12-10 16:00:00 10.6 12 Oeste 27 Oeste 0 -- -- 70
2019-12-10 15:00:00 10.5 16 Oeste 29 Sudoeste 0 -- -- 72
2019-12-10 14:00:00 9.4 17 Oeste 30 Noroeste 0 -- -- 76
2019-12-10 13:00:00 8.6 14 Noroeste 30 Oeste 0 -- -- 78
2019-12-10 12:00:00 8.1 14 Oeste 27 Oeste 0 -- -- 78
2019-12-10 11:00:00 6.8 14 Oeste 26 Oeste 0 -- -- 81
2019-12-10 10:00:00 3.2 3 Norte 6 Oeste 0 -- -- 92
2019-12-10 09:00:00 2.2 4 Noroeste 8 Oeste 0 -- -- 93
2019-12-10 08:00:00 2.2 3 Noroeste 8 Noroeste 0 -- -- 93
2019-12-10 07:00:00 2.9 4 Noroeste 11 Oeste 0 -- -- 93
2019-12-10 06:00:00 3.3 6 Oeste 12 Noroeste 0 -- -- 94
2019-12-10 05:00:00 4 2 Oeste 12 Oeste 0 -- -- 93
2019-12-10 04:00:00 4.3 6 Noroeste 13 Noroeste 0 -- -- 92
2019-12-10 03:00:00 5.2 5 Noroeste 15 Noroeste 0 -- -- 90
2019-12-10 02:00:00 6.3 9 Sudoeste 15 Sudoeste 0 -- -- 86
2019-12-10 01:00:00 7.3 4 Noroeste 15 Oeste 0 -- -- 85
2019-12-10 00:00:00 7.4 0 Calma 8 Noroeste 0 -- -- 85
2019-12-09 23:00:00 7.7 3 Noroeste 12 Oeste 0 -- -- 84
2019-12-09 22:00:00 7.8 4 Oeste 8 Sudoeste 0 -- -- 82
2019-12-09 21:00:00 8.4 4 Noroeste 15 Noroeste 0 -- -- 79
2019-12-09 20:00:00 9.2 10 Noroeste 21 Oeste 0 -- -- 76
2019-12-09 19:00:00 9.4 11 Oeste 22 Sudoeste 0 -- -- 78
2019-12-09 18:00:00 9.6 3 Oeste 15 Noroeste 0 -- -- 78
2019-12-09 17:00:00 10.3 9 Oeste 26 Oeste 0 -- -- 75
2019-12-09 16:00:00 10.9 15 Oeste 27 Oeste 0 -- -- 69
2019-12-09 15:00:00 10.2 11 Oeste 20 Oeste 0 -- -- 76
2019-12-09 14:00:00 9.4 12 Oeste 23 Oeste 0.2 -- -- 77
2019-12-09 13:00:00 8.7 10 Oeste 22 Noroeste 0.2 -- -- 85
2019-12-09 12:00:00 8.7 10 Oeste 20 Oeste 0 -- -- 78
2019-12-09 11:00:00 6.9 5 Oeste 15 Noroeste 0 -- -- 83
2019-12-09 10:00:00 5.5 7 Noroeste 15 Oeste 0 -- -- 87
2019-12-09 09:00:00 4.7 11 Oeste 19 Sudoeste 0 -- -- 87
2019-12-09 08:00:00 5.2 9 Sudoeste 27 Noroeste 0 -- -- 85
2019-12-09 07:00:00 5.5 12 Oeste 33 Noroeste 0 -- -- 85
2019-12-09 06:00:00 5.8 13 Noroeste 28 Noroeste 0 -- -- 87
2019-12-09 05:00:00 6 9 Oeste 24 Oeste 0 -- -- 87
2019-12-09 04:00:00 6.6 14 Oeste 24 Oeste 0 -- -- 89
2019-12-09 03:00:00 6.8 15 Oeste 25 Oeste 0 -- -- 92
2019-12-09 02:00:00 6.3 12 Oeste 19 Oeste 0 -- -- 94
2019-12-09 01:00:00 6.1 5 Noroeste 21 Sudoeste 0 -- -- 94
2019-12-09 00:00:00 6.3 6 Oeste 14 Oeste 0 -- -- 95
2019-12-08 23:00:00 7.2 5 Oeste 14 Oeste 0 -- -- 95
2019-12-08 22:00:00 7.6 4 Oeste 9 Oeste 0 -- -- 93
2019-12-08 21:00:00 8.3 6 Oeste 11 Oeste 0 -- -- 93
2019-12-08 20:00:00 8.4 6 Oeste 19 Oeste 0 -- -- 93
2019-12-08 19:00:00 8.7 11 Oeste 23 Oeste 0 -- -- 94
2019-12-08 18:00:00 8.7 16 Oeste 28 Oeste 0 -- -- 94
2019-12-08 17:00:00 8.6 10 Oeste 31 Oeste 0.8 -- -- 94
2019-12-08 16:00:00 8.7 17 Oeste 31 Oeste 1 -- -- 93
2019-12-08 15:00:00 8.7 15 Oeste 25 Oeste 1 -- -- 93
2019-12-08 14:00:00 9.3 15 Oeste 31 Oeste 0.2 -- -- 88
2019-12-08 13:00:00 9.9 13 Oeste 40 Sudoeste 0 -- -- 80
2019-12-08 12:00:00 9.2 18 Oeste 32 Oeste 0 -- -- 81
2019-12-08 11:00:00 8.1 12 Oeste 24 Oeste 0 -- -- 84
2019-12-08 10:00:00 7 14 Oeste 25 Oeste 0 -- -- 87
2019-12-08 09:00:00 5.5 11 Oeste 25 Oeste 0 -- -- 89
2019-12-08 08:00:00 5 13 Oeste 31 Sudoeste 0 -- -- 96
2019-12-08 07:00:00 4.1 2 Noroeste 6 Noroeste 0 -- -- 95
2019-12-08 06:00:00 3.7 4 Oeste 10 Sudoeste 0 -- -- 96
2019-12-08 05:00:00 3.7 5 Oeste 10 Oeste 0 -- -- 95
2019-12-08 04:00:00 4 4 Oeste 16 Oeste 0 -- -- 95
2019-12-08 03:00:00 3.7 2 Oeste 6 Oeste 0 -- -- 95
2019-12-08 02:00:00 4.2 0 Calma 8 Oeste 0 -- -- 94
2019-12-08 01:00:00 4.9 3 Noroeste 8 Noroeste 0 -- -- 93
2019-12-08 00:00:00 5.3 2 Oeste 8 Oeste 0 -- -- 92
2019-12-07 23:00:00 6.3 8 Sudoeste 12 Oeste 0 -- -- 90
2019-12-07 22:00:00 6.6 2 Sudoeste 8 Oeste 0 -- -- 88
2019-12-07 21:00:00 7.5 0 Calma 9 Sudoeste 0 -- -- 86
2019-12-07 20:00:00 9 6 Oeste 14 Oeste 0 -- -- 81
2019-12-07 19:00:00 9.7 7 Sudoeste 13 Sudoeste 0 -- -- 80
2019-12-07 18:00:00 11 8 Sudoeste 19 Sudoeste 0 -- -- 77
2019-12-07 17:00:00 12.9 8 Oeste 18 Oeste 0 -- -- 70
2019-12-07 16:00:00 13.2 10 Oeste 23 Sudoeste 0 -- -- 63
2019-12-07 15:00:00 12.1 10 Oeste 18 Sudoeste 0 -- -- 72
2019-12-07 14:00:00 11.3 6 Noroeste 18 Noroeste 0 -- -- 76
2019-12-07 13:00:00 10.3 8 Noroeste 22 Oeste 0 -- -- 77
2019-12-07 12:00:00 9.9 12 Oeste 23 Oeste 0 -- -- 80
2019-12-07 11:00:00 6.2 3 Noroeste 8 Noroeste 0 -- -- 98
2019-12-07 10:00:00 3.3 2 Sudoeste 4 Oeste 0 -- -- 100
2019-12-07 09:00:00 2.3 3 Oeste 6 Oeste 0 -- -- 99
2019-12-07 08:00:00 2.3 0 Calma 5 Oeste 0 -- -- 98
2019-12-07 07:00:00 2.3 0 Calma 6 Sudoeste 0 -- -- 98
2019-12-07 06:00:00 2.3 0 Calma 5 Oeste 0 -- -- 98
2019-12-07 05:00:00 2.6 0 Calma 4 Oeste 0 -- -- 98
2019-12-07 04:00:00 2.9 3 Sudoeste 7 Sudoeste 0 -- -- 98
2019-12-07 03:00:00 3.3 3 Sudoeste 6 Sudoeste 0 -- -- 98
2019-12-07 02:00:00 3.5 0 Calma 4 Sudoeste 0 -- -- 97
2019-12-07 01:00:00 3.5 2 Oeste 8 Oeste 0 -- -- 97
2019-12-07 00:00:00 3.3 2 Oeste 7 Sudoeste 0 -- -- 96
2019-12-06 23:00:00 3.4 0 Calma 8 Sudoeste 0 -- -- 95
2019-12-06 22:00:00 4.1 0 Calma 4 Oeste 0 -- -- 94
2019-12-06 21:00:00 4.6 3 Sudoeste 9 Sudoeste 0 -- -- 92
2019-12-06 20:00:00 5.7 3 Sur 6 Sudoeste 0 -- -- 88
2019-12-06 19:00:00 7.2 3 Sudeste 4 Sudeste 0 -- -- 84
2019-12-06 18:00:00 9 0 Calma 4 Sudeste 0 -- -- 79
2019-12-06 17:00:00 10.5 2 Este 5 Oeste 0 -- -- 70
2019-12-06 16:00:00 10.3 2 Este 4 Este 0 -- -- 70
2019-12-06 15:00:00 9.3 3 Este 9 Este 0 -- -- 74
2019-12-06 14:00:00 8.1 3 Este 6 Este 0 -- -- 80
2019-12-06 13:00:00 6.8 2 Noroeste 8 Oeste 0 -- -- 85
2019-12-06 12:00:00 5.6 4 Oeste 8 Noroeste 0 -- -- 96
2019-12-06 11:00:00 3.7 0 Calma 6 Oeste 0 -- -- 100
2019-12-06 10:00:00 1 0 Calma 5 Sudoeste 0 -- -- 100
2019-12-06 09:00:00 0.1 0 Calma 4 Sudoeste 0 -- -- 99
2019-12-06 08:00:00 0.4 0 Calma 4 Sudoeste 0 -- -- 98
2019-12-06 07:00:00 0.9 2 Sudoeste 5 Oeste 0 -- -- 98
2019-12-06 06:00:00 1.2 0 Calma 4 Norte 0 -- -- 98
2019-12-06 05:00:00 1.5 2 Oeste 5 Oeste 0 -- -- 97
2019-12-06 04:00:00 2.2 2 Oeste 4 Oeste 0 -- -- 97
2019-12-06 03:00:00 2.3 0 Calma 4 Oeste 0 -- -- 97
2019-12-06 02:00:00 2.6 4 Oeste 7 Oeste 0 -- -- 95
2019-12-06 01:00:00 3.4 0 Calma 4 Sudeste 0 -- -- 94
2019-12-06 00:00:00 4.3 0 Calma 3 Sudeste 0 -- -- 92
2019-12-05 23:00:00 5.6 0 Calma 8 Sudoeste 0 -- -- 90
2019-12-05 22:00:00 6.2 4 Sur 13 Sudoeste 0 -- -- 88
2019-12-05 21:00:00 6.4 9 Sudoeste 14 Sudoeste 0 -- -- 87
2019-12-05 20:00:00 7.1 8 Sudoeste 18 Sudoeste 0 -- -- 85
2019-12-05 19:00:00 7.5 6 Sudoeste 12 Sudoeste 0 -- -- 83
2019-12-05 18:00:00 8.6 9 Sudoeste 19 Sudoeste 0 -- -- 79
2019-12-05 17:00:00 10 8 Sudoeste 21 Sudoeste 0 -- -- 73
2019-12-05 16:00:00 10.4 11 Sudoeste 24 Sudoeste 0 -- -- 74
2019-12-05 15:00:00 9.9 12 Sudoeste 23 Sudoeste 0 -- -- 76
2019-12-05 14:00:00 9.6 12 Sudoeste 24 Sudoeste 0 -- -- 78
2019-12-05 13:00:00 9.1 10 Sudoeste 21 Sudoeste 0 -- -- 83
2019-12-05 12:00:00 7.9 10 Sudoeste 22 Sudoeste 0 -- -- 88
2019-12-05 11:00:00 7.4 7 Sudoeste 17 Sudoeste 0 -- -- 89
2019-12-05 10:00:00 7.2 5 Oeste 11 Oeste 0 -- -- 87
2019-12-05 09:00:00 7 5 Oeste 10 Oeste 0 -- -- 87
2019-12-05 08:00:00 7.1 5 Sudoeste 9 Oeste 0 -- -- 86
2019-12-05 07:00:00 7.2 4 Oeste 14 Noroeste 0 -- -- 84
2019-12-05 06:00:00 7.3 2 Oeste 14 Noroeste 0 -- -- 85
2019-12-05 05:00:00 7.6 4 Noroeste 18 Noroeste 0 -- -- 83
2019-12-05 04:00:00 7.6 6 Oeste 16 Oeste 0 -- -- 85
2019-12-05 03:00:00 7.7 12 Oeste 23 Sudoeste 0 -- -- 82
2019-12-05 02:00:00 7.6 6 Oeste 12 Oeste 0 -- -- 81
2019-12-05 01:00:00 7.7 6 Noroeste 19 Oeste 0 -- -- 81
2019-12-05 00:00:00 7.5 14 Oeste 28 Oeste 0 -- -- 86
2019-12-04 23:00:00 7.8 11 Oeste 23 Oeste 0 -- -- 83
2019-12-04 22:00:00 7.8 10 Oeste 27 Noroeste 0 -- -- 82
2019-12-04 21:00:00 7.9 11 Oeste 26 Oeste 0 -- -- 81
2019-12-04 20:00:00 7.5 12 Oeste 29 Oeste 0 -- -- 79
2019-12-04 19:00:00 8.4 12 Oeste 31 Oeste 0 -- -- 74
2019-12-04 18:00:00 9.4 10 Oeste 25 Noroeste 0 -- -- 74
2019-12-04 17:00:00 10.8 12 Oeste 21 Oeste 0 -- -- 69
2019-12-04 16:00:00 11.7 11 Oeste 22 Oeste 0 -- -- 66
2019-12-04 15:00:00 10.3 11 Oeste 19 Oeste 0 -- -- 72
2019-12-04 14:00:00 8.8 8 Oeste 20 Oeste 0 -- -- 74
2019-12-04 13:00:00 7.5 11 Oeste 22 Sudoeste 0 -- -- 75
2019-12-04 12:00:00 5.8 7 Sudoeste 20 Oeste 0 -- -- 81
2019-12-04 11:00:00 4.6 8 Sudoeste 19 Oeste 0 -- -- 86
2019-12-04 10:00:00 1.5 8 Oeste 15 Sudoeste 0 -- -- 99
2019-12-04 09:00:00 -0.3 0 Calma 8 Oeste 0 -- -- 98
2019-12-04 08:00:00 -0.5 0 Calma 8 Oeste 0 -- -- 97
2019-12-04 07:00:00 -0.2 3 Oeste 8 Noroeste 0 -- -- 97
2019-12-04 06:00:00 0.5 0 Calma 9 Sudoeste 0 -- -- 97
2019-12-04 05:00:00 0.6 5 Oeste 9 Noroeste 0 -- -- 97
2019-12-04 04:00:00 0.4 3 Sudoeste 10 Noroeste 0 -- -- 96
2019-12-04 03:00:00 0.9 3 Este 6 Este 0 -- -- 95
2019-12-04 02:00:00 1 2 Sudeste 6 Oeste 0 -- -- 95
2019-12-04 01:00:00 0.9 0 Calma 5 Nordeste 0 -- -- 95
2019-12-04 00:00:00 1.1 0 Calma 4 Sur 0 -- -- 93
2019-12-03 23:00:00 1.5 0 Calma 4 Sudoeste 0 -- -- 92
2019-12-03 22:00:00 1.9 3 Sudoeste 5 Sudoeste 0 -- -- 90
2019-12-03 21:00:00 2.9 0 Calma 7 Este 0 -- -- 88
2019-12-03 20:00:00 3.3 4 Este 8 Este 0 -- -- 85
2019-12-03 19:00:00 4.1 0 Calma 4 Sudoeste 0 -- -- 82
2019-12-03 18:00:00 5.6 3 Sudeste 9 Este 0 -- -- 74
2019-12-03 17:00:00 6.7 4 Este 8 Este 0 -- -- 67
2019-12-03 16:00:00 6.9 4 Este 10 Este 0 -- -- 68
2019-12-03 15:00:00 6.9 3 Noroeste 10 Norte 0 -- -- 69
2019-12-03 14:00:00 6.9 4 Norte 12 Norte 0 -- -- 67
2019-12-03 13:00:00 7.2 5 Oeste 20 Oeste 0 -- -- 67
2019-12-03 12:00:00 7.1 10 Oeste 21 Oeste 0 -- -- 77
2019-12-03 11:00:00 5.6 9 Oeste 17 Oeste 0 -- -- 85
2019-12-03 10:00:00 4.7 9 Oeste 19 Oeste 0 -- -- 88
2019-12-03 09:00:00 3.7 9 Oeste 15 Noroeste 0 -- -- 91
2019-12-03 08:00:00 4 5 Noroeste 21 Oeste 0 -- -- 89
2019-12-03 07:00:00 4 12 Oeste 23 Oeste 0 -- -- 89
2019-12-03 06:00:00 4.2 12 Oeste 21 Oeste 0 -- -- 89
2019-12-03 05:00:00 4.4 12 Oeste 21 Oeste 0 -- -- 88
2019-12-03 04:00:00 4.6 11 Oeste 21 Sudoeste 0 -- -- 88
2019-12-03 03:00:00 4.6 12 Oeste 21 Oeste 0 -- -- 89
2019-12-03 02:00:00 4.6 12 Oeste 22 Oeste 0 -- -- 88
2019-12-03 01:00:00 4.7 13 Oeste 21 Oeste 0 -- -- 90
2019-12-03 00:00:00 4.9 12 Oeste 21 Oeste 0 -- -- 88
2019-12-02 23:00:00 5.3 12 Oeste 21 Oeste 0 -- -- 82
2019-12-02 22:00:00 5.3 11 Oeste 18 Noroeste 0 -- -- 80
2019-12-02 21:00:00 4.8 7 Noroeste 18 Noroeste 0 -- -- 79
2019-12-02 20:00:00 5.2 9 Noroeste 21 Noroeste 0 -- -- 74
2019-12-02 19:00:00 6.2 12 Noroeste 19 Noroeste 0 -- -- 74
2019-12-02 18:00:00 6.7 12 Noroeste 26 Oeste 0 -- -- 76
2019-12-02 17:00:00 7.8 12 Noroeste 27 Noroeste 0 -- -- 76
2019-12-02 16:00:00 8 10 Noroeste 29 Oeste 0.4 -- -- 76
2019-12-02 15:00:00 8.8 10 Noroeste 23 Oeste 0 -- -- 81
2019-12-02 14:00:00 9.7 10 Noroeste 17 Noroeste 0 -- -- 79
2019-12-02 13:00:00 9.4 5 Oeste 13 Sur 0 -- -- 78
2019-12-02 12:00:00 8.7 4 Sudoeste 14 Sudoeste 0 -- -- 85
2019-12-02 11:00:00 7.8 5 Sudoeste 19 Sudoeste 0 -- -- 90
2019-12-02 10:00:00 6.9 7 Sudoeste 14 Sudoeste 0 -- -- 93
2019-12-02 09:00:00 6.1 6 Sudoeste 16 Sudoeste 0 -- -- 95
2019-12-02 08:00:00 5.5 6 Sur 15 Sudoeste 0 -- -- 95
2019-12-02 07:00:00 5.5 6 Sur 12 Sudoeste 0 -- -- 94
2019-12-02 06:00:00 5.8 4 Sudoeste 18 Sur 0 -- -- 94
2019-12-02 05:00:00 5.7 6 Sur 19 Sudoeste 0 -- -- 94
2019-12-02 04:00:00 5.8 10 Sudoeste 17 Sudoeste 0 -- -- 94
2019-12-02 03:00:00 6.2 8 Sudoeste 15 Sudoeste 0 -- -- 94
2019-12-02 02:00:00 6.5 5 Sur 14 Sur 0 -- -- 94
2019-12-02 01:00:00 6.3 8 Sudoeste 14 Sudoeste 0 -- -- 94
2019-12-02 00:00:00 6.3 4 Sudoeste 10 Sudoeste 0 -- -- 95
2019-12-01 23:00:00 6.7 6 Sudoeste 12 Sudoeste 0 -- -- 95
2019-12-01 22:00:00 7.1 0 Calma 13 Sudoeste 0 -- -- 95
2019-12-01 21:00:00 7.5 3 Oeste 10 Sudoeste 0 -- -- 95
2019-12-01 20:00:00 7.7 4 Noroeste 14 Sudoeste 0 -- -- 94
2019-12-01 19:00:00 8 8 Sudoeste 15 Sudoeste 1 -- -- 92
2019-12-01 18:00:00 8.6 4 Oeste 7 Oeste 0 -- -- 89
2019-12-01 17:00:00 9.6 2 Oeste 5 Norte 0 -- -- 85
2019-12-01 16:00:00 9.5 2 Oeste 5 Norte 0 -- -- 86
2019-12-01 15:00:00 8.6 2 Norte 11 Este 0 -- -- 89
2019-12-01 14:00:00 7.8 5 Este 13 Este 0 -- -- 97
2019-12-01 13:00:00 7.1 6 Este 13 Este 0 -- -- 100
2019-12-01 12:00:00 6.5 4 Este 9 Este 0 -- -- 100
2019-12-01 11:00:00 6.1 4 Este 8 Este 0.2 -- -- 100
2019-12-01 10:00:00 5.3 3 Este 11 Sudeste 0 -- -- 100
2019-12-01 09:00:00 4.7 3 Este 12 Este 0.2 -- -- 100
2019-12-01 08:00:00 4.6 3 Este 5 Este 0 -- -- 100
2019-12-01 07:00:00 4.6 0 Calma 5 Sudoeste 0 -- -- 99
2019-12-01 06:00:00 4.6 0 Calma 5 Este 0 -- -- 99
2019-12-01 05:00:00 4.5 0 Calma 4 Oeste 0 -- -- 99
2019-12-01 04:00:00 4 2 Oeste 6 Sudoeste 0 -- -- 98
2019-12-01 03:00:00 4.2 4 Sudoeste 8 Sudoeste 0 -- -- 97
2019-12-01 02:00:00 4.8 0 Calma 6 Sudoeste 0 -- -- 96
2019-12-01 01:00:00 5.6 2 Este 6 Este 0 -- -- 95
2019-12-01 00:00:00 6 5 Sudoeste 10 Sudoeste 0 -- -- 93
2019-11-30 23:00:00 6.8 2 Sudeste 3 Sudeste 0 -- -- 93
2019-11-30 22:00:00 7.7 0 Calma 12 Sudoeste 0 -- -- 90
2019-11-30 21:00:00 8.1 6 Oeste 12 Sudoeste 0 -- -- 91
2019-11-30 20:00:00 8.6 0 Calma 11 Nordeste 0 -- -- 93
2019-11-30 19:00:00 9.2 0 Calma 21 Sudoeste 1 -- -- 93
2019-11-30 18:00:00 9.7 10 Oeste 22 Oeste 2.8 -- -- 95
2019-11-30 17:00:00 10.4 8 Noroeste 13 Noroeste 1.8 -- -- 96
2019-11-30 16:00:00 10.4 4 Oeste 28 Noroeste 3.8 -- -- 93
2019-11-30 15:00:00 10.8 6 Este 14 Sudeste 0 -- -- 87
2019-11-30 14:00:00 10 11 Este 20 Sudeste 0 -- -- 89
2019-11-30 13:00:00 9.4 10 Este 25 Sudeste 0 -- -- 90
2019-11-30 12:00:00 9 8 Este 22 Este 0 -- -- 92
2019-11-30 11:00:00 8.2 9 Este 19 Sudeste 0.4 -- -- 93
2019-11-30 10:00:00 8 10 Este 23 Este 0 -- -- 91
2019-11-30 09:00:00 7.9 4 Nordeste 13 Este 0 -- -- 88
2019-11-30 08:00:00 8 4 Este 16 Sudeste 0 -- -- 86
2019-11-30 07:00:00 8 6 Este 19 Este 0 -- -- 89
2019-11-30 06:00:00 8.1 8 Este 17 Este 0 -- -- 90
2019-11-30 05:00:00 8.3 7 Este 16 Sudeste 0 -- -- 91
2019-11-30 04:00:00 7.6 6 Este 19 Este 0 -- -- 97
2019-11-30 03:00:00 7.6 6 Este 13 Este 0 -- -- 98
2019-11-30 02:00:00 6.7 3 Sudeste 6 Sudeste 0 -- -- 98
2019-11-30 01:00:00 6.3 0 Calma 5 Este 0 -- -- 97
2019-11-30 00:00:00 6.7 0 Calma 6 Sudoeste 0 -- -- 96
2019-11-29 23:00:00 7.3 0 Calma 4 Oeste 0 -- -- 95
2019-11-29 22:00:00 7.8 0 Calma 4 Sudoeste 0 -- -- 93
2019-11-29 21:00:00 8.9 3 Sur 6 Sudoeste 0 -- -- 92
2019-11-29 20:00:00 9.9 2 Sur 7 Sudoeste 0 -- -- 89
2019-11-29 19:00:00 11.3 3 Sudeste 5 Este 0 -- -- 85
2019-11-29 18:00:00 13.5 0 Calma 7 Sur 0 -- -- 77
2019-11-29 17:00:00 15.8 0 Calma 5 Noroeste 0 -- -- 67
2019-11-29 16:00:00 15.7 3 Noroeste 11 Noroeste 0 -- -- 68
2019-11-29 15:00:00 14.7 5 Oeste 13 Sudoeste 0 -- -- 71
2019-11-29 14:00:00 14.5 3 Norte 8 Sudoeste 0 -- -- 74
2019-11-29 13:00:00 13.9 3 Sur 6 Sudoeste 0 -- -- 80
2019-11-29 12:00:00 13.6 0 Calma 8 Oeste 0 -- -- 84
2019-11-29 11:00:00 12.9 5 Oeste 9 Oeste 0 -- -- 93
2019-11-29 10:00:00 11.6 0 Calma 8 Sudoeste 0 -- -- 96
2019-11-29 09:00:00 11.2 4 Sudoeste 7 Sudoeste 0 -- -- 96
2019-11-29 08:00:00 11.2 2 Oeste 9 Noroeste 0 -- -- 96
2019-11-29 07:00:00 11.3 6 Noroeste 22 Oeste 0.4 -- -- 95
2019-11-29 06:00:00 11.9 11 Noroeste 22 Oeste 0 -- -- 91
2019-11-29 05:00:00 12.5 9 Oeste 17 Oeste 0 -- -- 89
2019-11-29 04:00:00 12.5 12 Oeste 20 Oeste 0 -- -- 89
2019-11-29 03:00:00 12.1 7 Oeste 15 Noroeste 0 -- -- 91
2019-11-29 02:00:00 11.5 4 Oeste 10 Oeste 0 -- -- 94
2019-11-29 01:00:00 10.4 2 Sudoeste 10 Noroeste 0 -- -- 97
2019-11-29 00:00:00 10.1 0 Calma 6 Nordeste 0 -- -- 97
2019-11-28 23:00:00 10.3 0 Calma 8 Sur 0.2 -- -- 97
2019-11-28 22:00:00 10.5 3 Sudeste 7 Nordeste 1 -- -- 96
2019-11-28 21:00:00 10.6 3 Norte 12 Sudeste 1 -- -- 94
2019-11-28 20:00:00 11 3 Este 11 Este 2.6 -- -- 92
2019-11-28 19:00:00 11.2 4 Este 13 Este 0 -- -- 90
2019-11-28 18:00:00 11.6 2 Este 5 Nordeste 0.6 -- -- 85
2019-11-28 17:00:00 12.1 0 Calma 10 Sudeste 0 -- -- 81
2019-11-28 16:00:00 12.9 5 Este 8 Nordeste 0 -- -- 80
2019-11-28 15:00:00 13.6 4 Nordeste 9 Sudeste 0 -- -- 73
2019-11-28 14:00:00 14 5 Sudeste 14 Sudeste 0 -- -- 71
2019-11-28 13:00:00 14.6 3 Este 19 Sudeste 0 -- -- 71
2019-11-28 12:00:00 14.4 4 Nordeste 19 Norte 0 -- -- 71
2019-11-28 11:00:00 14 11 Noroeste 21 Noroeste 0 -- -- 71
2019-11-28 10:00:00 12 5 Este 15 Oeste 0 -- -- 77
2019-11-28 09:00:00 11 8 Oeste 14 Oeste 0 -- -- 82
2019-11-28 08:00:00 11.2 4 Noroeste 23 Oeste 0 -- -- 80
2019-11-28 07:00:00 11.2 8 Sudoeste 17 Oeste 0 -- -- 79
2019-11-28 06:00:00 11.6 11 Oeste 31 Oeste 0 -- -- 75
2019-11-28 05:00:00 11.4 13 Oeste 28 Oeste 0 -- -- 77
2019-11-28 04:00:00 11.2 15 Oeste 31 Oeste 0 -- -- 76
2019-11-28 03:00:00 11.6 18 Oeste 35 Oeste 0 -- -- 75
2019-11-28 02:00:00 11.5 15 Oeste 31 Oeste 0 -- -- 74
2019-11-28 01:00:00 10.3 8 Oeste 18 Noroeste 0 -- -- 83
2019-11-28 00:00:00 10 3 Sudoeste 19 Oeste 0 -- -- 84
2019-11-27 23:00:00 9.7 6 Oeste 14 Oeste 0 -- -- 90
2019-11-27 22:00:00 9 4 Sur 8 Sudoeste 0 -- -- 94
2019-11-27 21:00:00 9.2 0 Calma 9 Sur 0 -- -- 93
2019-11-27 20:00:00 9.4 3 Sudoeste 8 Noroeste 0 -- -- 91
2019-11-27 19:00:00 9.6 4 Noroeste 28 Oeste 1.4 -- -- 91
2019-11-27 18:00:00 10.4 2 Sudoeste 5 Este 1.4 -- -- 90
2019-11-27 17:00:00 11 0 Calma 7 Oeste 1 -- -- 86
2019-11-27 16:00:00 11.8 5 Oeste 18 Noroeste 0.8 -- -- 79
2019-11-27 15:00:00 13.1 10 Noroeste 30 Noroeste 0 -- -- 66
2019-11-27 14:00:00 14 16 Noroeste 33 Oeste 0 -- -- 63
2019-11-27 06:00:00 -- -- -- -- -- -- -- -- --
2019-11-27 05:00:00 11.3 8 Noroeste 39 Oeste 0 -- -- 67
2019-11-27 04:00:00 11.5 24 Oeste 41 Oeste 0 -- -- 65
2019-11-27 03:00:00 12.1 22 Oeste 47 Oeste 0 -- -- 64
2019-11-27 02:00:00 12.6 22 Oeste 50 Oeste 0 -- -- 65
2019-11-27 01:00:00 12.4 12 Oeste 27 Oeste 0 -- -- 72
2019-11-27 00:00:00 12.5 5 Oeste 34 Oeste 0 -- -- 78
2019-11-26 23:00:00 13 17 Oeste 33 Oeste 0.2 -- -- 78
2019-11-26 22:00:00 10.7 4 Oeste 14 Sudoeste 0 -- -- 96
2019-11-26 21:00:00 11 3 Sudeste 12 Sudoeste 1.6 -- -- 94
2019-11-26 20:00:00 11.1 4 Oeste 10 Sur 0 -- -- 90
2019-11-26 19:00:00 11.2 2 Este 11 Este 0 -- -- 89
2019-11-26 18:00:00 11.5 5 Este 14 Este 0 -- -- 87
2019-11-26 17:00:00 11.9 8 Este 17 Este 0 -- -- 84
2019-11-26 16:00:00 12.2 10 Este 25 Sudeste 0 -- -- 83
2019-11-26 15:00:00 12.5 10 Este 21 Este 0 -- -- 81
2019-11-26 14:00:00 11.9 11 Este 24 Sudeste 0 -- -- 81
2019-11-26 13:00:00 11.1 8 Este 20 Este 0 -- -- 85
2019-11-26 12:00:00 10.2 6 Este 19 Este 0.2 -- -- 90
2019-11-26 11:00:00 10.2 8 Este 17 Este 0 -- -- 88
2019-11-26 10:00:00 9.6 6 Este 19 Este 0 -- -- 91
2019-11-26 09:00:00 7.6 7 Este 12 Este 0 -- -- 96
2019-11-26 08:00:00 7.2 3 Este 10 Este 0 -- -- 97
2019-11-26 07:00:00 6.2 3 Sudeste 6 Sudeste 0 -- -- 98
2019-11-26 06:00:00 5.7 2 Norte 6 Sudeste 0 -- -- 96
2019-11-26 05:00:00 5.7 0 Calma 6 Sudeste 0 -- -- 96
2019-11-26 04:00:00 5.9 2 Oeste 5 Norte 0 -- -- 95
2019-11-26 03:00:00 6.1 0 Calma 4 Sudoeste 0 -- -- 94
2019-11-26 02:00:00 6.2 2 Oeste 5 Sur 0 -- -- 92
2019-11-26 01:00:00 7.2 2 Sudoeste 8 Sudoeste 0 -- -- 89
2019-11-26 00:00:00 8.5 4 Sudoeste 9 Sudoeste 0 -- -- 86
2019-11-25 23:00:00 9 4 Sur 12 Sudoeste 0 -- -- 84
2019-11-25 22:00:00 10.9 6 Sudoeste 11 Sudoeste 0 -- -- 78
2019-11-25 21:00:00 11.9 7 Oeste 25 Sudoeste 0 -- -- 76
2019-11-25 20:00:00 12.2 7 Sudoeste 19 Sudoeste 0 -- -- 76
2019-11-25 19:00:00 12.6 3 Oeste 23 Oeste 0 -- -- 73
2019-11-25 18:00:00 13.8 14 Oeste 29 Oeste 0 -- -- 66
2019-11-25 17:00:00 15.1 18 Oeste 35 Oeste 0 -- -- 61
2019-11-25 16:00:00 15.4 13 Noroeste 36 Oeste 0 -- -- 62
2019-11-25 15:00:00 15.8 21 Oeste 39 Oeste 0 -- -- 63
2019-11-25 14:00:00 15.7 17 Oeste 43 Noroeste 0 -- -- 66
2019-11-25 13:00:00 12.9 4 Sudeste 6 Sudeste 0 -- -- 83
2019-11-25 12:00:00 9.4 2 Este 4 Este 0 -- -- 99
2019-11-25 11:00:00 6.6 2 Oeste 8 Sudeste 0 -- -- 99
2019-11-25 10:00:00 5.6 0 Calma 4 Sudoeste 0 -- -- 98
2019-11-25 09:00:00 4.9 0 Calma 5 Este 0 -- -- 97
2019-11-25 08:00:00 5 3 Nordeste 4 Sudoeste 0 -- -- 96
2019-11-25 07:00:00 5.3 0 Calma 4 Este 0 -- -- 95
2019-11-25 06:00:00 6.3 0 Calma 12 Este 0 -- -- 94
2019-11-25 05:00:00 6.9 3 Este 8 Este 0 -- -- 94
2019-11-25 04:00:00 7 4 Este 11 Este 0 -- -- 94
2019-11-25 03:00:00 7.2 5 Este 9 Nordeste 0.2 -- -- 93
2019-11-25 02:00:00 7.4 2 Este 12 Este 0 -- -- 92
2019-11-25 01:00:00 7.7 6 Este 12 Este 0 -- -- 91
2019-11-25 00:00:00 8.2 0 Calma 12 Sudoeste 0 -- -- 91
2019-11-24 23:00:00 7.9 5 Sudoeste 13 Sudoeste 0.2 -- -- 91
2019-11-24 22:00:00 8.3 0 Calma 9 Sudoeste 0.8 -- -- 88
2019-11-24 21:00:00 8.8 4 Sudoeste 6 Sudoeste 0 -- -- 78
2019-11-24 20:00:00 9 3 Oeste 12 Oeste 0 -- -- 75
2019-11-24 19:00:00 8.9 3 Oeste 9 Noroeste 0 -- -- 73
2019-11-24 18:00:00 9.8 2 Noroeste 14 Oeste 0 -- -- 69
2019-11-24 17:00:00 10.7 3 Sudoeste 19 Noroeste 0 -- -- 63
2019-11-24 16:00:00 11.1 10 Noroeste 27 Noroeste 0 -- -- 62
2019-11-24 15:00:00 11 15 Noroeste 31 Noroeste 0 -- -- 61
2019-11-24 14:00:00 10.6 14 Noroeste 33 Oeste 0 -- -- 65
2019-11-24 13:00:00 9.6 10 Oeste 22 Oeste 0 -- -- 73
2019-11-24 12:00:00 8.1 7 Oeste 19 Oeste 0 -- -- 76
2019-11-24 11:00:00 7.6 12 Noroeste 25 Noroeste 0 -- -- 77
2019-11-24 10:00:00 6.8 9 Noroeste 17 Noroeste 0 -- -- 80
2019-11-24 09:00:00 5.4 10 Noroeste 19 Noroeste 0 -- -- 84
2019-11-24 08:00:00 4.8 6 Noroeste 17 Oeste 0 -- -- 86
2019-11-24 07:00:00 6.3 12 Oeste 24 Oeste 0 -- -- 78
2019-11-24 06:00:00 6.9 14 Oeste 26 Oeste 0 -- -- 77
2019-11-24 05:00:00 7.1 13 Oeste 28 Oeste 0 -- -- 78
2019-11-24 04:00:00 7.3 9 Oeste 26 Oeste 0 -- -- 77
2019-11-24 03:00:00 7.4 9 Oeste 31 Oeste 0 -- -- 78
2019-11-24 02:00:00 7.5 15 Oeste 31 Oeste 0 -- -- 78
2019-11-24 01:00:00 7.7 14 Noroeste 40 Oeste 0 -- -- 78
2019-11-24 00:00:00 8.6 19 Oeste 31 Oeste 0 -- -- 72
2019-11-23 23:00:00 8.9 16 Oeste 30 Oeste 0 -- -- 67
2019-11-23 22:00:00 8.8 13 Oeste 28 Sudoeste 0 -- -- 71
2019-11-23 21:00:00 8.9 17 Oeste 32 Sudoeste 0 -- -- 70
2019-11-23 20:00:00 8.7 13 Oeste 29 Oeste 0 -- -- 71
2019-11-23 19:00:00 8.4 12 Noroeste 27 Oeste 0 -- -- 73
2019-11-23 18:00:00 8.9 11 Oeste 43 Oeste 0 -- -- 71
2019-11-23 17:00:00 9.6 22 Oeste 46 Oeste 0 -- -- 68
2019-11-23 16:00:00 10.5 22 Oeste 46 Oeste 0 -- -- 62
2019-11-23 15:00:00 9.8 22 Noroeste 50 Noroeste 0 -- -- 72
2019-11-23 14:00:00 10 28 Oeste 54 Oeste 0 -- -- 67
2019-11-23 13:00:00 9.9 21 Noroeste 58 Oeste 0 -- -- 68
2019-11-23 12:00:00 9.1 30 Oeste 52 Oeste 0 -- -- 66
2019-11-23 11:00:00 9 30 Oeste 54 Oeste 0 -- -- 67
2019-11-23 10:00:00 8.4 27 Oeste 48 Oeste 0 -- -- 71
2019-11-23 09:00:00 8 23 Oeste 41 Oeste 0.2 -- -- 75
2019-11-23 08:00:00 7.5 18 Oeste 36 Oeste 0 -- -- 84
2019-11-23 07:00:00 7.3 15 Oeste 35 Oeste 0 -- -- 87
2019-11-23 06:00:00 8.1 18 Oeste 33 Oeste 0 -- -- 78
2019-11-23 05:00:00 8.1 18 Oeste 31 Oeste 0.2 -- -- 79
2019-11-23 04:00:00 8 17 Oeste 33 Sudoeste 0 -- -- 96
2019-11-23 03:00:00 6 0 Calma 6 Sudoeste 0 -- -- 99
2019-11-23 02:00:00 6.4 2 Oeste 7 Sur 0 -- -- 99
2019-11-23 01:00:00 7.3 2 Sur 6 Sudeste 0 -- -- 98
2019-11-23 00:00:00 7.3 0 Calma 6 Este 0 -- -- 98
2019-11-22 23:00:00 7.8 0 Calma 8 Sudeste 0 -- -- 97
2019-11-22 22:00:00 8 0 Calma 6 Sur 0 -- -- 97
2019-11-22 21:00:00 8.3 4 Sudeste 15 Este 0 -- -- 96
2019-11-22 20:00:00 8.4 6 Este 15 Este 0 -- -- 96
2019-11-22 19:00:00 8.3 10 Este 25 Sudeste 2.6 -- -- 95
2019-11-22 18:00:00 8.4 8 Nordeste 27 Nordeste 1.4 -- -- 94
2019-11-22 17:00:00 9.1 8 Este 31 Este 0 -- -- 88
2019-11-22 16:00:00 8.8 17 Este 44 Este 0.2 -- -- 90
2019-11-22 15:00:00 8.4 16 Este 41 Este 0.4 -- -- 89
2019-11-22 14:00:00 8.6 20 Este 40 Este 0.2 -- -- 85
2019-11-22 13:00:00 8.4 26 Este 44 Este 0 -- -- 84
2019-11-22 12:00:00 7.8 23 Este 42 Este 0 -- -- 85
2019-11-22 11:00:00 7.1 14 Este 33 Sudeste 0 -- -- 88
2019-11-22 10:00:00 6 10 Este 35 Sudeste 0 -- -- 94
2019-11-22 09:00:00 5.4 18 Este 35 Este 0 -- -- 96
2019-11-22 08:00:00 4.8 11 Este 23 Sudeste 0 -- -- 97
2019-11-22 07:00:00 4.9 4 Este 15 Sudeste 0 -- -- 97
2019-11-22 06:00:00 4.6 4 Nordeste 18 Este 0 -- -- 96
2019-11-22 05:00:00 4.6 9 Este 19 Este 0 -- -- 97
2019-11-22 04:00:00 4.3 5 Sudeste 10 Sudeste 0 -- -- 97
2019-11-22 03:00:00 4.5 4 Norte 20 Sudeste 0 -- -- 97
2019-11-22 02:00:00 4.3 5 Este 12 Sudeste 0 -- -- 97
2019-11-22 01:00:00 4.4 5 Este 14 Este 0 -- -- 97
2019-11-22 00:00:00 4.2 4 Este 14 Este 0 -- -- 97
2019-11-21 23:00:00 3.9 5 Este 10 Nordeste 0 -- -- 97
2019-11-21 22:00:00 3.8 2 Sudeste 5 Sudeste 0 -- -- 96
2019-11-21 21:00:00 3.8 0 Calma 4 Sudoeste 0 -- -- 94
2019-11-21 20:00:00 4.6 0 Calma 5 Este 0 -- -- 93
2019-11-21 19:00:00 5.7 0 Calma 9 Este 0 -- -- 90
2019-11-21 18:00:00 6.4 3 Sudeste 12 Este 0 -- -- 89
2019-11-21 17:00:00 7.4 5 Nordeste 16 Nordeste 0 -- -- 85
2019-11-21 16:00:00 7.5 6 Este 16 Este 0 -- -- 86
2019-11-21 15:00:00 6.6 8 Este 18 Este 0 -- -- 90
2019-11-21 14:00:00 6.4 10 Este 18 Este 0 -- -- 88
2019-11-21 13:00:00 6.3 9 Sudeste 18 Este 0 -- -- 91
2019-11-21 12:00:00 5.7 8 Este 16 Este 0 -- -- 93
2019-11-21 11:00:00 5.5 8 Este 19 Sudeste 0 -- -- 94
2019-11-21 10:00:00 5.2 4 Este 13 Sudeste 0 -- -- 95
2019-11-21 09:00:00 5.1 3 Sudeste 11 Sudeste 0.2 -- -- 95
2019-11-21 08:00:00 -- -- -- -- -- -- -- -- --
2019-11-21 07:00:00 -- -- -- -- -- -- -- -- --
2019-11-21 06:00:00 -- -- -- -- -- -- -- -- --
2019-11-21 05:00:00 -- -- -- -- -- -- -- -- --
2019-11-21 04:00:00 -- -- -- -- -- -- -- -- --
2019-11-21 03:00:00 -- -- -- -- -- -- -- -- --
2019-11-21 02:00:00 -- -- -- -- -- -- -- -- --
2019-11-21 01:00:00 -- -- -- -- -- -- -- -- --
2019-11-21 00:00:00 -- -- -- -- -- -- -- -- --
2019-11-20 23:00:00 -- -- -- -- -- -- -- -- --
2019-11-20 22:00:00 -- -- -- -- -- -- -- -- --
2019-11-20 21:00:00 -- -- -- -- -- -- -- -- --
2019-11-20 20:00:00 5.2 4 Sudoeste 11 Sudoeste 0 -- -- 89
2019-11-20 19:00:00 5.6 3 Sudoeste 9 Sudoeste 0 -- -- 89
2019-11-20 18:00:00 5.9 0 Calma 8 Este 0 -- -- 86
2019-11-20 17:00:00 6.3 4 Sudeste 12 Este 0 -- -- 82
2019-11-20 16:00:00 6.4 5 Sudeste 14 Este 0 -- -- 82
2019-11-20 15:00:00 5.3 7 Sudeste 22 Sudeste 0 -- -- 86
2019-11-20 14:00:00 4.7 6 Sudeste 26 Este 0 -- -- 86
2019-11-20 13:00:00 4.3 9 Este 32 Este 0 -- -- 86
2019-11-20 12:00:00 3.9 15 Este 27 Este 0 -- -- 88
2019-11-20 11:00:00 3.5 13 Este 28 Este 0 -- -- 91
2019-11-20 10:00:00 2.8 8 Este 15 Sudeste 0 -- -- 94
2019-11-20 09:00:00 2.5 6 Sudeste 18 Sudeste 0 -- -- 95
2019-11-20 08:00:00 2.4 8 Sudeste 18 Este 0 -- -- 96
2019-11-20 07:00:00 2.1 5 Sudeste 12 Sudeste 0 -- -- 97
2019-11-20 06:00:00 1.2 2 Este 6 Norte 0 -- -- 97
2019-11-20 05:00:00 1.8 2 Este 13 Este 0 -- -- 96
2019-11-20 04:00:00 1.1 2 Sudeste 6 Sudoeste 0 -- -- 97
2019-11-20 03:00:00 1.5 0 Calma 3 Oeste 0 -- -- 96
2019-11-20 02:00:00 1.8 0 Calma 4 Sudoeste 0 -- -- 93
2019-11-20 01:00:00 2.5 2 Sudoeste 6 Sudoeste 0 -- -- 92
2019-11-20 00:00:00 3.3 4 Sudoeste 6 Sudoeste 0 -- -- 90
2019-11-19 23:00:00 4.1 0 Calma 5 Sudoeste 0 -- -- 88
2019-11-19 22:00:00 4.9 0 Calma 7 Oeste 0 -- -- 86
2019-11-19 21:00:00 5.8 3 Oeste 10 Oeste 0 -- -- 82
2019-11-19 20:00:00 6.6 6 Oeste 15 Sudoeste 0 -- -- 79
2019-11-19 19:00:00 7.1 7 Oeste 13 Sudoeste 0 -- -- 78
2019-11-19 18:00:00 8.3 6 Oeste 14 Noroeste 0 -- -- 73
2019-11-19 17:00:00 9.6 9 Oeste 22 Oeste 0 -- -- 66
2019-11-19 16:00:00 10.4 10 Oeste 22 Oeste 0 -- -- 66
2019-11-19 15:00:00 10.2 8 Oeste 22 Oeste 0 -- -- 67
2019-11-19 14:00:00 9.7 8 Oeste 21 Oeste 0 -- -- 69
2019-11-19 13:00:00 8.7 10 Noroeste 18 Oeste 0 -- -- 71
2019-11-19 12:00:00 7.9 7 Noroeste 15 Oeste 0 -- -- 76
2019-11-19 11:00:00 6.4 7 Noroeste 13 Noroeste 0 -- -- 78
2019-11-19 10:00:00 4 4 Noroeste 10 Oeste 0 -- -- 93
2019-11-19 09:00:00 2 4 Oeste 9 Noroeste 0 -- -- 95
2019-11-19 08:00:00 1.8 4 Oeste 13 Oeste 0 -- -- 94
2019-11-19 07:00:00 2.5 4 Noroeste 10 Oeste 0 -- -- 94
2019-11-19 06:00:00 3.1 5 Noroeste 10 Noroeste 0 -- -- 93
2019-11-19 05:00:00 3.9 5 Noroeste 10 Oeste 0 -- -- 91
2019-11-19 04:00:00 4.7 4 Oeste 6 Noroeste 0 -- -- 92
2019-11-19 03:00:00 4.9 3 Oeste 9 Noroeste 0 -- -- 91
2019-11-19 02:00:00 5.4 5 Noroeste 14 Oeste 0 -- -- 91
2019-11-19 01:00:00 5.4 3 Oeste 15 Oeste 0 -- -- 91
2019-11-19 00:00:00 5.3 4 Oeste 8 Sudoeste 0.4 -- -- 93
2019-11-18 23:00:00 5.6 3 Oeste 14 Sudoeste 0.4 -- -- 90
2019-11-18 22:00:00 5.9 5 Sudoeste 13 Oeste 0 -- -- 87
2019-11-18 21:00:00 6.2 6 Oeste 16 Sudoeste 0 -- -- 82
2019-11-18 20:00:00 5.6 0 Calma 13 Sudoeste 0 -- -- 84
2019-11-18 19:00:00 6.1 8 Sudoeste 20 Oeste 0 -- -- 81
2019-11-18 18:00:00 6.6 7 Sudoeste 14 Oeste 0 -- -- 81
2019-11-18 17:00:00 7.7 11 Noroeste 24 Noroeste 0 -- -- 74
2019-11-18 16:00:00 8.1 14 Noroeste 26 Oeste 0 -- -- 72
2019-11-18 15:00:00 8.7 12 Noroeste 23 Oeste 0 -- -- 72
2019-11-18 14:00:00 7.2 13 Noroeste 27 Noroeste 0 -- -- 81
2019-11-18 13:00:00 6.9 15 Oeste 30 Oeste 0 -- -- 85
2019-11-18 12:00:00 6.6 14 Oeste 24 Oeste 0.2 -- -- 87
2019-11-18 11:00:00 6.2 9 Sudoeste 26 Oeste 0.2 -- -- 87
2019-11-18 10:00:00 6 16 Oeste 26 Oeste 0 -- -- 86
2019-11-18 09:00:00 6 14 Oeste 25 Oeste 0 -- -- 85
2019-11-18 08:00:00 6 13 Oeste 25 Oeste 0 -- -- 84
2019-11-18 07:00:00 5.5 12 Sudoeste 23 Sudoeste 0 -- -- 88
2019-11-18 06:00:00 5.4 15 Oeste 29 Oeste 0 -- -- 89
2019-11-18 05:00:00 5.4 13 Oeste 24 Oeste 0.2 -- -- 90
2019-11-18 04:00:00 5 7 Oeste 23 Oeste 0 -- -- 90
2019-11-18 03:00:00 5.3 11 Oeste 30 Oeste 0.2 -- -- 90
2019-11-18 02:00:00 5.4 13 Oeste 25 Oeste 0 -- -- 90
2019-11-18 01:00:00 5.8 13 Oeste 28 Oeste 0 -- -- 86
2019-11-18 00:00:00 6.3 17 Oeste 32 Noroeste 0.2 -- -- 88
2019-11-17 23:00:00 6.4 14 Oeste 27 Oeste 0.4 -- -- 96
2019-11-17 22:00:00 5.8 4 Noroeste 8 Noroeste 0.2 -- -- 96
2019-11-17 21:00:00 5.7 4 Oeste 9 Noroeste 0 -- -- 94
2019-11-17 20:00:00 6.6 5 Sudoeste 17 Sudoeste 0 -- -- 91
2019-11-17 19:00:00 7.2 8 Sudoeste 15 Sudoeste 0 -- -- 92
2019-11-17 18:00:00 7.6 5 Oeste 18 Oeste 0.2 -- -- 92
2019-11-17 17:00:00 8.5 12 Oeste 29 Oeste 0 -- -- 85
2019-11-17 16:00:00 9 18 Oeste 33 Oeste 0 -- -- 82
2019-11-17 15:00:00 8.7 10 Noroeste 29 Noroeste 0.2 -- -- 82
2019-11-17 14:00:00 8.5 13 Noroeste 28 Oeste 0 -- -- 81
2019-11-17 13:00:00 8.3 11 Oeste 26 Oeste 0 -- -- 81
2019-11-17 12:00:00 7.7 8 Noroeste 18 Oeste 0 -- -- 86
2019-11-17 11:00:00 6.5 9 Oeste 18 Oeste 0.6 -- -- 89
2019-11-17 10:00:00 6.6 13 Noroeste 27 Oeste 0.2 -- -- 83
2019-11-17 09:00:00 6 13 Noroeste 26 Oeste 0 -- -- 83
2019-11-17 08:00:00 5.4 15 Oeste 29 Oeste 0 -- -- 86
2019-11-17 07:00:00 5.6 12 Oeste 26 Oeste 0 -- -- 82
2019-11-17 06:00:00 5.5 13 Noroeste 27 Noroeste 0 -- -- 80
2019-11-17 05:00:00 5.3 8 Noroeste 23 Oeste 0 -- -- 79
2019-11-17 04:00:00 5.1 10 Oeste 20 Oeste 0 -- -- 79
2019-11-17 03:00:00 4.9 11 Oeste 26 Noroeste 0 -- -- 78
2019-11-17 02:00:00 4.8 11 Noroeste 20 Oeste 0 -- -- 79
2019-11-17 01:00:00 5.1 7 Noroeste 17 Oeste 0 -- -- 77
2019-11-17 00:00:00 4.9 6 Oeste 11 Noroeste 0 -- -- 82
2019-11-16 23:00:00 4.9 4 Oeste 14 Oeste 0 -- -- 82
2019-11-16 22:00:00 5.4 11 Oeste 17 Oeste 0 -- -- 79
2019-11-16 21:00:00 5.8 5 Noroeste 16 Sudoeste 0 -- -- 79
2019-11-16 20:00:00 6.7 10 Oeste 21 Oeste 0 -- -- 76
2019-11-16 19:00:00 7 9 Oeste 21 Sudoeste 0 -- -- 77
2019-11-16 18:00:00 7.3 12 Oeste 21 Sudoeste 0 -- -- 78
2019-11-16 17:00:00 7.4 8 Oeste 14 Oeste 0 -- -- 79
2019-11-16 16:00:00 7.4 8 Noroeste 22 Noroeste 0 -- -- 78
2019-11-16 15:00:00 6.9 11 Noroeste 37 Oeste 0 -- -- 78
2019-11-16 14:00:00 6.6 16 Oeste 30 Oeste 0 -- -- 75
2019-11-16 13:00:00 6.2 12 Noroeste 23 Noroeste 0 -- -- 79
2019-11-16 12:00:00 4.9 14 Noroeste 31 Oeste 0 -- -- 82
2019-11-16 11:00:00 4.4 12 Noroeste 23 Noroeste 0 -- -- 86
2019-11-16 10:00:00 3.1 8 Oeste 19 Oeste 0 -- -- 91
2019-11-16 09:00:00 2.3 8 Oeste 17 Oeste 0 -- -- 92
2019-11-16 08:00:00 2 6 Sudoeste 15 Oeste 0 -- -- 93
2019-11-16 07:00:00 1.7 6 Noroeste 14 Oeste 0 -- -- 95
2019-11-16 06:00:00 1.5 9 Oeste 14 Oeste 0 -- -- 96
2019-11-16 05:00:00 1.2 2 Noroeste 13 Sudoeste 0 -- -- 95
2019-11-16 04:00:00 1.5 6 Oeste 13 Oeste 0 -- -- 95
2019-11-16 03:00:00 2 3 Oeste 10 Oeste 0 -- -- 95
2019-11-16 02:00:00 2.7 6 Oeste 14 Oeste 0 -- -- 94
2019-11-16 01:00:00 3.1 5 Noroeste 13 Oeste 0 -- -- 94
2019-11-16 00:00:00 3.2 8 Oeste 15 Oeste 0 -- -- 93
2019-11-15 23:00:00 3.9 8 Oeste 18 Oeste 0.2 -- -- 93
2019-11-15 22:00:00 4 9 Oeste 18 Oeste 0.2 -- -- 93
2019-11-15 21:00:00 4.2 8 Oeste 18 Oeste 0 -- -- 91
2019-11-15 20:00:00 4.3 8 Oeste 20 Oeste 0 -- -- 91
2019-11-15 19:00:00 4.3 8 Oeste 21 Oeste 0 -- -- 92
2019-11-15 18:00:00 4.6 9 Oeste 21 Oeste 0 -- -- 93
2019-11-15 17:00:00 4.8 9 Oeste 23 Oeste 0.2 -- -- 92
2019-11-15 16:00:00 5.1 11 Noroeste 32 Oeste 0 -- -- 92
2019-11-15 15:00:00 5.1 12 Noroeste 25 Oeste 1 -- -- 94
2019-11-15 14:00:00 4.3 12 Oeste 44 Oeste 4.4 -- -- 94
2019-11-15 13:00:00 5.2 20 Oeste 49 Oeste 0.6 -- -- 87
2019-11-15 12:00:00 6.1 28 Oeste 51 Noroeste 0 -- -- 81
2019-11-15 11:00:00 5.7 28 Oeste 48 Sudoeste 1.2 -- -- 85
2019-11-15 10:00:00 4.8 17 Oeste 33 Noroeste 0.8 -- -- 89
2019-11-15 09:00:00 4.8 22 Oeste 40 Oeste 0.6 -- -- 89
2019-11-15 08:00:00 4.3 18 Oeste 37 Oeste 1.6 -- -- 94
2019-11-15 07:00:00 3.2 5 Oeste 19 Oeste 1.2 -- -- 95
2019-11-15 06:00:00 3.7 10 Noroeste 17 Noroeste 0.4 -- -- 93
2019-11-15 05:00:00 3.4 10 Oeste 20 Oeste 0.4 -- -- 92
2019-11-15 04:00:00 2.9 8 Noroeste 15 Oeste 0 -- -- 90
2019-11-15 03:00:00 2.9 6 Oeste 17 Oeste 0 -- -- 89
2019-11-15 02:00:00 3.4 3 Oeste 16 Oeste 0 -- -- 89
2019-11-15 01:00:00 4.2 5 Oeste 15 Oeste 0 -- -- 93
2019-11-15 00:00:00 4.3 9 Oeste 22 Oeste 0 -- -- 92